sensor_id;sensor_type;location;lat;lon;timestamp;pressure;altitude;pressure_sealevel;temperature;humidity
7109;BME280;29079;41.930;25.558;2024-02-26T00:02:08;99299.75;;;11.24;100.00
7109;BME280;29079;41.930;25.558;2024-02-26T00:04:58;99305.22;;;11.22;100.00
7109;BME280;29079;41.930;25.558;2024-02-26T00:07:46;99282.84;;;10.86;100.00
7109;BME280;29079;41.930;25.558;2024-02-26T00:10:35;99300.25;;;11.00;100.00
7109;BME280;29079;41.930;25.558;2024-02-26T00:13:23;99266.81;;;10.95;100.00
7109;BME280;29079;41.930;25.558;2024-02-26T00:16:11;99301.03;;;10.43;100.00
7109;BME280;29079;41.930;25.558;2024-02-26T00:19:00;99279.41;;;10.17;100.00
7109;BME280;29079;41.930;25.558;2024-02-26T00:21:49;99288.00;;;10.40;100.00
7109;BME280;29079;41.930;25.558;2024-02-26T00:24:40;99279.66;;;10.72;100.00
7109;BME280;29079;41.930;25.558;2024-02-26T00:27:28;99282.59;;;10.79;100.00
7109;BME280;29079;41.930;25.558;2024-02-26T00:30:16;99284.28;;;10.80;100.00
7109;BME280;29079;41.930;25.558;2024-02-26T00:33:04;99270.97;;;10.41;100.00
7109;BME280;29079;41.930;25.558;2024-02-26T00:35:53;99271.94;;;10.20;100.00
7109;BME280;29079;41.930;25.558;2024-02-26T00:38:42;99267.59;;;10.29;100.00
7109;BME280;29079;41.930;25.558;2024-02-26T00:41:31;99269.13;;;10.80;100.00
7109;BME280;29079;41.930;25.558;2024-02-26T00:44:19;99265.06;;;10.57;100.00
7109;BME280;29079;41.930;25.558;2024-02-26T00:47:07;99269.72;;;10.35;100.00
7109;BME280;29079;41.930;25.558;2024-02-26T00:49:56;99261.09;;;10.80;100.00
7109;BME280;29079;41.930;25.558;2024-02-26T00:52:44;99205.66;;;10.65;100.00
7109;BME280;29079;41.930;25.558;2024-02-26T00:55:33;99253.13;;;10.71;100.00
7109;BME280;29079;41.930;25.558;2024-02-26T00:58:21;99265.28;;;10.93;100.00
7109;BME280;29079;41.930;25.558;2024-02-26T01:01:09;99269.72;;;10.35;100.00
7109;BME280;29079;41.930;25.558;2024-02-26T01:03:57;99232.38;;;9.86;100.00
7109;BME280;29079;41.930;25.558;2024-02-26T01:06:45;99262.69;;;10.15;100.00
7109;BME280;29079;41.930;25.558;2024-02-26T01:09:33;99256.06;;;10.09;100.00
7109;BME280;29079;41.930;25.558;2024-02-26T01:12:23;99243.19;;;10.43;100.00
7109;BME280;29079;41.930;25.558;2024-02-26T01:15:11;99239.84;;;10.89;100.00
7109;BME280;29079;41.930;25.558;2024-02-26T01:17:59;99245.78;;;10.73;100.00
7109;BME280;29079;41.930;25.558;2024-02-26T01:20:48;99248.13;;;10.95;100.00
7109;BME280;29079;41.930;25.558;2024-02-26T01:23:36;99248.09;;;10.48;100.00
7109;BME280;29079;41.930;25.558;2024-02-26T01:26:24;99245.28;;;10.01;100.00
7109;BME280;29079;41.930;25.558;2024-02-26T01:29:13;99209.66;;;9.92;100.00
7109;BME280;29079;41.930;25.558;2024-02-26T01:32:01;99233.50;;;9.93;100.00
7109;BME280;29079;41.930;25.558;2024-02-26T01:34:51;99237.41;;;10.09;100.00
7109;BME280;29079;41.930;25.558;2024-02-26T01:37:39;99232.91;;;9.70;100.00
7109;BME280;29079;41.930;25.558;2024-02-26T01:40:28;99242.97;;;9.47;100.00
7109;BME280;29079;41.930;25.558;2024-02-26T01:43:16;99230.72;;;9.25;100.00
7109;BME280;29079;41.930;25.558;2024-02-26T01:46:06;99229.56;;;9.18;100.00
7109;BME280;29079;41.930;25.558;2024-02-26T01:48:54;99238.59;;;9.05;100.00
7109;BME280;29079;41.930;25.558;2024-02-26T01:51:43;99233.81;;;8.99;100.00
7109;BME280;29079;41.930;25.558;2024-02-26T01:54:33;99239.69;;;8.93;100.00
7109;BME280;29079;41.930;25.558;2024-02-26T01:57:22;99233.50;;;8.93;100.00
7109;BME280;29079;41.930;25.558;2024-02-26T02:00:11;99230.56;;;8.86;100.00
7109;BME280;29079;41.930;25.558;2024-02-26T02:03:02;99225.84;;;9.40;100.00
7109;BME280;29079;41.930;25.558;2024-02-26T02:05:51;99227.41;;;9.43;100.00
7109;BME280;29079;41.930;25.558;2024-02-26T02:08:39;99215.06;;;9.51;100.00
7109;BME280;29079;41.930;25.558;2024-02-26T02:11:28;99201.88;;;9.59;100.00
7109;BME280;29079;41.930;25.558;2024-02-26T02:14:16;99234.03;;;9.68;100.00
7109;BME280;29079;41.930;25.558;2024-02-26T02:17:04;99230.03;;;9.33;100.00
7109;BME280;29079;41.930;25.558;2024-02-26T02:19:54;99183.72;;;9.14;100.00
7109;BME280;29079;41.930;25.558;2024-02-26T02:22:44;99224.56;;;9.34;100.00
7109;BME280;29079;41.930;25.558;2024-02-26T02:25:31;99212.94;;;9.35;100.00
7109;BME280;29079;41.930;25.558;2024-02-26T02:28:19;99228.16;;;9.93;100.00
7109;BME280;29079;41.930;25.558;2024-02-26T02:31:08;99228.38;;;9.41;100.00
7109;BME280;29079;41.930;25.558;2024-02-26T02:33:56;99228.41;;;9.51;100.00
7109;BME280;29079;41.930;25.558;2024-02-26T02:36:52;99220.22;;;9.43;100.00
7109;BME280;29079;41.930;25.558;2024-02-26T02:39:41;99220.09;;;9.45;100.00
7109;BME280;29079;41.930;25.558;2024-02-26T02:42:29;99219.72;;;9.88;100.00
7109;BME280;29079;41.930;25.558;2024-02-26T02:45:18;99224.78;;;9.91;100.00
7109;BME280;29079;41.930;25.558;2024-02-26T02:48:06;99218.88;;;9.68;100.00
7109;BME280;29079;41.930;25.558;2024-02-26T02:50:55;99228.56;;;9.89;100.00
7109;BME280;29079;41.930;25.558;2024-02-26T02:53:43;99226.31;;;9.65;100.00
7109;BME280;29079;41.930;25.558;2024-02-26T02:56:33;99211.38;;;9.33;100.00
7109;BME280;29079;41.930;25.558;2024-02-26T02:59:21;99217.56;;;9.43;100.00
7109;BME280;29079;41.930;25.558;2024-02-26T03:02:08;99208.50;;;9.75;100.00
7109;BME280;29079;41.930;25.558;2024-02-26T03:04:56;99204.00;;;9.56;100.00
7109;BME280;29079;41.930;25.558;2024-02-26T03:07:45;99214.22;;;9.41;100.00
7109;BME280;29079;41.930;25.558;2024-02-26T03:10:33;99203.75;;;10.08;100.00
7109;BME280;29079;41.930;25.558;2024-02-26T03:13:22;99220.59;;;10.18;100.00
7109;BME280;29079;41.930;25.558;2024-02-26T03:16:10;99204.72;;;9.87;100.00
7109;BME280;29079;41.930;25.558;2024-02-26T03:18:58;99214.94;;;9.63;100.00
7109;BME280;29079;41.930;25.558;2024-02-26T03:21:47;99219.28;;;10.32;100.00
7109;BME280;29079;41.930;25.558;2024-02-26T03:24:35;99218.34;;;10.43;100.00
7109;BME280;29079;41.930;25.558;2024-02-26T03:27:23;99214.66;;;9.75;100.00
7109;BME280;29079;41.930;25.558;2024-02-26T03:30:12;99218.19;;;10.44;100.00
7109;BME280;29079;41.930;25.558;2024-02-26T03:33:00;99224.50;;;10.43;100.00
7109;BME280;29079;41.930;25.558;2024-02-26T03:35:49;99217.63;;;10.41;100.00
7109;BME280;29079;41.930;25.558;2024-02-26T03:38:37;99235.75;;;10.08;100.00
7109;BME280;29079;41.930;25.558;2024-02-26T03:41:25;99234.31;;;9.84;100.00
7109;BME280;29079;41.930;25.558;2024-02-26T03:44:13;99230.09;;;9.62;100.00
7109;BME280;29079;41.930;25.558;2024-02-26T03:47:03;99230.88;;;9.43;100.00
7109;BME280;29079;41.930;25.558;2024-02-26T03:49:51;99218.63;;;9.21;100.00
7109;BME280;29079;41.930;25.558;2024-02-26T03:52:39;99232.44;;;9.05;100.00
7109;BME280;29079;41.930;25.558;2024-02-26T03:55:27;99230.84;;;8.93;100.00
7109;BME280;29079;41.930;25.558;2024-02-26T03:58:16;99237.25;;;8.90;100.00
7109;BME280;29079;41.930;25.558;2024-02-26T04:01:03;99231.06;;;9.11;100.00
7109;BME280;29079;41.930;25.558;2024-02-26T04:03:53;99223.59;;;9.35;100.00
7109;BME280;29079;41.930;25.558;2024-02-26T04:06:44;99223.88;;;9.01;100.00
7109;BME280;29079;41.930;25.558;2024-02-26T04:09:33;99190.88;;;8.83;100.00
7109;BME280;29079;41.930;25.558;2024-02-26T04:12:21;99235.63;;;8.99;100.00
7109;BME280;29079;41.930;25.558;2024-02-26T04:15:10;99224.88;;;9.00;100.00
7109;BME280;29079;41.930;25.558;2024-02-26T04:17:58;99229.41;;;8.88;100.00
7109;BME280;29079;41.930;25.558;2024-02-26T04:20:48;99237.31;;;9.00;100.00
7109;BME280;29079;41.930;25.558;2024-02-26T04:23:38;99226.75;;;9.19;100.00
7109;BME280;29079;41.930;25.558;2024-02-26T04:26:26;99229.16;;;9.22;100.00
7109;BME280;29079;41.930;25.558;2024-02-26T04:29:14;99237.09;;;8.82;100.00
7109;BME280;29079;41.930;25.558;2024-02-26T04:32:03;99236.34;;;8.70;100.00
7109;BME280;29079;41.930;25.558;2024-02-26T04:34:52;99243.50;;;9.00;100.00
7109;BME280;29079;41.930;25.558;2024-02-26T04:37:41;99232.28;;;8.76;100.00
7109;BME280;29079;41.930;25.558;2024-02-26T04:40:29;99236.31;;;8.91;100.00
7109;BME280;29079;41.930;25.558;2024-02-26T04:43:17;99246.19;;;8.58;100.00
7109;BME280;29079;41.930;25.558;2024-02-26T04:46:05;99235.81;;;8.55;100.00
7109;BME280;29079;41.930;25.558;2024-02-26T04:48:54;99228.72;;;8.65;100.00
7109;BME280;29079;41.930;25.558;2024-02-26T04:51:43;99218.50;;;9.22;100.00
7109;BME280;29079;41.930;25.558;2024-02-26T04:54:33;99216.34;;;9.57;100.00
7109;BME280;29079;41.930;25.558;2024-02-26T04:57:21;99213.38;;;9.50;100.00
7109;BME280;29079;41.930;25.558;2024-02-26T05:00:11;99224.78;;;10.31;100.00
7109;BME280;29079;41.930;25.558;2024-02-26T05:02:59;99232.44;;;9.55;100.00
7109;BME280;29079;41.930;25.558;2024-02-26T05:05:48;99211.75;;;9.18;100.00
7109;BME280;29079;41.930;25.558;2024-02-26T05:08:36;99213.69;;;9.57;100.00
7109;BME280;29079;41.930;25.558;2024-02-26T05:11:26;99230.97;;;10.02;100.00
7109;BME280;29079;41.930;25.558;2024-02-26T05:14:14;99229.00;;;9.84;100.00
7109;BME280;29079;41.930;25.558;2024-02-26T05:17:03;99227.56;;;9.61;100.00
7109;BME280;29079;41.930;25.558;2024-02-26T05:19:52;99242.22;;;9.45;100.00
7109;BME280;29079;41.930;25.558;2024-02-26T05:22:40;99237.00;;;9.24;100.00
7109;BME280;29079;41.930;25.558;2024-02-26T05:25:28;99248.75;;;9.21;100.00
7109;BME280;29079;41.930;25.558;2024-02-26T05:28:18;99250.56;;;9.71;100.00
7109;BME280;29079;41.930;25.558;2024-02-26T05:31:07;99246.59;;;9.46;100.00
7109;BME280;29079;41.930;25.558;2024-02-26T05:33:55;99254.63;;;9.15;100.00
7109;BME280;29079;41.930;25.558;2024-02-26T05:36:44;99254.91;;;9.12;100.00
7109;BME280;29079;41.930;25.558;2024-02-26T05:39:32;99256.56;;;9.13;100.00
7109;BME280;29079;41.930;25.558;2024-02-26T05:42:20;99252.38;;;9.20;100.00
7109;BME280;29079;41.930;25.558;2024-02-26T05:45:10;99251.78;;;9.07;100.00
7109;BME280;29079;41.930;25.558;2024-02-26T05:47:58;99234.03;;;8.86;100.00
7109;BME280;29079;41.930;25.558;2024-02-26T05:50:47;99249.06;;;8.97;100.00
7109;BME280;29079;41.930;25.558;2024-02-26T05:53:35;99247.66;;;8.93;100.00
7109;BME280;29079;41.930;25.558;2024-02-26T05:56:23;99247.91;;;8.90;100.00
7109;BME280;29079;41.930;25.558;2024-02-26T05:59:11;99247.28;;;8.77;100.00
7109;BME280;29079;41.930;25.558;2024-02-26T06:02:03;99245.66;;;8.85;100.00
7109;BME280;29079;41.930;25.558;2024-02-26T06:04:52;99255.94;;;9.00;100.00
7109;BME280;29079;41.930;25.558;2024-02-26T06:07:40;99195.91;;;8.76;100.00
7109;BME280;29079;41.930;25.558;2024-02-26T06:10:28;99257.66;;;9.01;100.00
7109;BME280;29079;41.930;25.558;2024-02-26T06:13:16;99272.94;;;9.09;100.00
7109;BME280;29079;41.930;25.558;2024-02-26T06:16:04;99267.19;;;9.03;100.00
7109;BME280;29079;41.930;25.558;2024-02-26T06:18:54;99261.00;;;9.03;100.00
7109;BME280;29079;41.930;25.558;2024-02-26T06:21:43;99263.94;;;9.00;100.00
7109;BME280;29079;41.930;25.558;2024-02-26T06:24:31;99269.72;;;9.05;100.00
7109;BME280;29079;41.930;25.558;2024-02-26T06:27:19;99275.69;;;8.97;100.00
7109;BME280;29079;41.930;25.558;2024-02-26T06:30:09;99263.19;;;8.88;100.00
7109;BME280;29079;41.930;25.558;2024-02-26T06:32:58;99230.50;;;8.76;100.00
7109;BME280;29079;41.930;25.558;2024-02-26T06:35:48;99260.38;;;8.89;100.00
7109;BME280;29079;41.930;25.558;2024-02-26T06:38:36;99279.72;;;8.92;100.00
7109;BME280;29079;41.930;25.558;2024-02-26T06:41:24;99281.38;;;9.14;100.00
7109;BME280;29079;41.930;25.558;2024-02-26T06:44:14;99273.88;;;8.98;100.00
7109;BME280;29079;41.930;25.558;2024-02-26T06:47:02;99272.19;;;8.97;100.00
7109;BME280;29079;41.930;25.558;2024-02-26T06:49:50;99277.50;;;9.18;100.00
7109;BME280;29079;41.930;25.558;2024-02-26T06:52:40;99278.94;;;9.32;100.00
7109;BME280;29079;41.930;25.558;2024-02-26T06:55:28;99285.75;;;9.24;100.00
7109;BME280;29079;41.930;25.558;2024-02-26T06:58:16;99283.75;;;9.48;100.00
7109;BME280;29079;41.930;25.558;2024-02-26T07:01:04;99284.47;;;9.50;100.00
7109;BME280;29079;41.930;25.558;2024-02-26T07:03:55;99282.97;;;9.67;100.00
7109;BME280;29079;41.930;25.558;2024-02-26T07:06:43;99289.44;;;9.74;100.00
7109;BME280;29079;41.930;25.558;2024-02-26T07:09:34;99285.97;;;9.83;100.00
7109;BME280;29079;41.930;25.558;2024-02-26T07:12:22;99291.28;;;9.83;100.00
7109;BME280;29079;41.930;25.558;2024-02-26T07:15:11;99289.28;;;9.75;100.00
7109;BME280;29079;41.930;25.558;2024-02-26T07:17:59;99295.63;;;9.84;100.00
7109;BME280;29079;41.930;25.558;2024-02-26T07:20:50;99260.09;;;9.64;100.00
7109;BME280;29079;41.930;25.558;2024-02-26T07:23:38;99299.28;;;9.83;100.00
7109;BME280;29079;41.930;25.558;2024-02-26T07:26:27;99292.13;;;9.84;100.00
7109;BME280;29079;41.930;25.558;2024-02-26T07:29:17;99277.09;;;9.83;100.00
7109;BME280;29079;41.930;25.558;2024-02-26T07:32:06;99288.09;;;9.99;100.00
7109;BME280;29079;41.930;25.558;2024-02-26T07:34:54;99289.59;;;10.02;100.00
7109;BME280;29079;41.930;25.558;2024-02-26T07:37:42;99286.81;;;10.13;100.00
7109;BME280;29079;41.930;25.558;2024-02-26T07:40:30;99293.28;;;10.20;100.00
7109;BME280;29079;41.930;25.558;2024-02-26T07:43:20;99290.03;;;10.26;100.00
7109;BME280;29079;41.930;25.558;2024-02-26T07:46:11;99292.72;;;10.66;100.00
7109;BME280;29079;41.930;25.558;2024-02-26T07:48:59;99293.31;;;10.50;100.00
7109;BME280;29079;41.930;25.558;2024-02-26T07:51:47;99279.81;;;10.51;100.00
7109;BME280;29079;41.930;25.558;2024-02-26T07:54:35;99289.44;;;10.91;100.00
7109;BME280;29079;41.930;25.558;2024-02-26T07:57:23;99283.00;;;10.94;100.00
7109;BME280;29079;41.930;25.558;2024-02-26T08:00:14;99282.84;;;10.86;100.00
7109;BME280;29079;41.930;25.558;2024-02-26T08:03:04;99280.78;;;10.70;100.00
7109;BME280;29079;41.930;25.558;2024-02-26T08:05:52;99274.19;;;10.74;100.00
7109;BME280;29079;41.930;25.558;2024-02-26T08:08:40;99286.53;;;10.75;100.00
7109;BME280;29079;41.930;25.558;2024-02-26T08:11:29;99272.84;;;10.97;100.00
7109;BME280;29079;41.930;25.558;2024-02-26T08:14:17;99266.72;;;10.77;100.00
7109;BME280;29079;41.930;25.558;2024-02-26T08:17:07;99276.41;;;10.78;100.00
7109;BME280;29079;41.930;25.558;2024-02-26T08:19:55;99273.75;;;10.78;100.00
7109;BME280;29079;41.930;25.558;2024-02-26T08:22:44;99264.16;;;10.86;100.00
7109;BME280;29079;41.930;25.558;2024-02-26T08:25:32;99266.72;;;10.77;100.00
7109;BME280;29079;41.930;25.558;2024-02-26T08:28:20;99260.25;;;10.70;100.00
7109;BME280;29079;41.930;25.558;2024-02-26T08:31:08;99286.31;;;11.06;100.00
7109;BME280;29079;41.930;25.558;2024-02-26T08:33:57;99290.25;;;11.11;100.00
7109;BME280;29079;41.930;25.558;2024-02-26T08:36:47;99297.59;;;11.00;100.00
7109;BME280;29079;41.930;25.558;2024-02-26T08:39:37;99290.19;;;10.84;100.00
7109;BME280;29079;41.930;25.558;2024-02-26T08:42:26;99295.22;;;10.96;100.00
7109;BME280;29079;41.930;25.558;2024-02-26T08:45:14;99298.94;;;11.13;100.00
7109;BME280;29079;41.930;25.558;2024-02-26T08:48:02;99295.28;;;11.14;100.00
7109;BME280;29079;41.930;25.558;2024-02-26T08:50:52;99288.56;;;11.01;100.00
7109;BME280;29079;41.930;25.558;2024-02-26T08:53:40;99280.34;;;10.84;100.00
7109;BME280;29079;41.930;25.558;2024-02-26T08:56:29;99268.09;;;10.91;100.00
7109;BME280;29079;41.930;25.558;2024-02-26T08:59:18;99290.94;;;11.13;100.00
7109;BME280;29079;41.930;25.558;2024-02-26T09:02:09;99287.31;;;11.05;100.00
7109;BME280;29079;41.930;25.558;2024-02-26T09:04:57;99272.38;;;11.12;100.00
7109;BME280;29079;41.930;25.558;2024-02-26T09:07:46;99271.22;;;11.24;100.00
7109;BME280;29079;41.930;25.558;2024-02-26T09:10:34;99274.25;;;11.39;100.00
7109;BME280;29079;41.930;25.558;2024-02-26T09:13:23;99272.56;;;11.38;100.00
7109;BME280;29079;41.930;25.558;2024-02-26T09:16:11;99276.75;;;11.41;100.00
7109;BME280;29079;41.930;25.558;2024-02-26T09:18:59;99273.59;;;11.27;100.00
7109;BME280;29079;41.930;25.558;2024-02-26T09:21:47;99274.28;;;11.29;100.00
7109;BME280;29079;41.930;25.558;2024-02-26T09:24:37;99274.13;;;11.31;100.00
7109;BME280;29079;41.930;25.558;2024-02-26T09:27:25;99269.03;;;11.38;100.00
7109;BME280;29079;41.930;25.558;2024-02-26T09:30:13;99270.31;;;11.33;100.00
7109;BME280;29079;41.930;25.558;2024-02-26T09:33:02;99274.66;;;11.44;100.00
7109;BME280;29079;41.930;25.558;2024-02-26T09:35:50;99273.44;;;11.29;100.00
7109;BME280;29079;41.930;25.558;2024-02-26T09:38:38;99193.22;;;10.83;100.00
7109;BME280;29079;41.930;25.558;2024-02-26T09:41:44;99275.63;;;11.43;100.00
7109;BME280;29079;41.930;25.558;2024-02-26T09:44:33;99253.97;;;11.46;100.00
7109;BME280;29079;41.930;25.558;2024-02-26T09:47:25;99261.31;;;11.62;100.00
7109;BME280;29079;41.930;25.558;2024-02-26T09:50:14;99262.59;;;11.58;99.66
7109;BME280;29079;41.930;25.558;2024-02-26T09:53:05;99265.72;;;11.54;99.42
7109;BME280;29079;41.930;25.558;2024-02-26T09:55:57;99266.50;;;11.64;99.51
7109;BME280;29079;41.930;25.558;2024-02-26T09:58:47;99266.78;;;11.71;98.71
7109;BME280;29079;41.930;25.558;2024-02-26T10:01:42;99265.41;;;11.84;98.59
7109;BME280;29079;41.930;25.558;2024-02-26T10:04:31;99234.59;;;11.62;97.60
7109;BME280;29079;41.930;25.558;2024-02-26T10:07:20;99260.06;;;11.84;97.38
7109;BME280;29079;41.930;25.558;2024-02-26T10:10:09;99216.41;;;11.66;96.77
7109;BME280;29079;41.930;25.558;2024-02-26T10:12:58;99253.09;;;11.92;95.82
7109;BME280;29079;41.930;25.558;2024-02-26T10:15:49;99254.31;;;12.07;95.97
7109;BME280;29079;41.930;25.558;2024-02-26T10:18:47;99257.50;;;12.11;94.53
7109;BME280;29079;41.930;25.558;2024-02-26T10:21:38;99247.94;;;12.08;93.96
7109;BME280;29079;41.930;25.558;2024-02-26T10:24:26;99242.06;;;12.05;95.68
7109;BME280;29079;41.930;25.558;2024-02-26T10:27:15;99240.88;;;12.17;94.72
7109;BME280;29079;41.930;25.558;2024-02-26T10:30:03;99223.94;;;12.16;96.34
7109;BME280;29079;41.930;25.558;2024-02-26T10:32:54;99227.84;;;12.22;94.83
7109;BME280;29079;41.930;25.558;2024-02-26T10:35:45;99212.94;;;12.19;95.40
7109;BME280;29079;41.930;25.558;2024-02-26T10:38:35;99225.56;;;12.27;96.76
7109;BME280;29079;41.930;25.558;2024-02-26T10:41:23;99215.09;;;12.16;92.65
7109;BME280;29079;41.930;25.558;2024-02-26T10:44:11;99221.50;;;12.23;93.11
7109;BME280;29079;41.930;25.558;2024-02-26T10:47:05;99205.94;;;12.18;92.47
7109;BME280;29079;41.930;25.558;2024-02-26T10:49:57;99220.06;;;12.29;92.28
7109;BME280;29079;41.930;25.558;2024-02-26T10:52:46;99219.44;;;12.35;93.22
7109;BME280;29079;41.930;25.558;2024-02-26T10:55:35;99191.44;;;12.29;92.04
7109;BME280;29079;41.930;25.558;2024-02-26T10:58:24;99208.00;;;12.51;92.04
7109;BME280;29079;41.930;25.558;2024-02-26T11:01:13;99197.13;;;12.52;89.64
7109;BME280;29079;41.930;25.558;2024-02-26T11:04:02;99189.28;;;12.51;90.70
7109;BME280;29079;41.930;25.558;2024-02-26T11:06:54;99198.34;;;12.58;87.38
7109;BME280;29079;41.930;25.558;2024-02-26T11:09:45;99188.63;;;12.57;88.13
7109;BME280;29079;41.930;25.558;2024-02-26T11:12:39;99191.69;;;12.62;85.26
7109;BME280;29079;41.930;25.558;2024-02-26T11:15:28;99190.50;;;12.65;85.11
7109;BME280;29079;41.930;25.558;2024-02-26T11:18:19;99176.56;;;12.53;84.76
7109;BME280;29079;41.930;25.558;2024-02-26T11:21:08;99176.94;;;12.58;82.29
7109;BME280;29079;41.930;25.558;2024-02-26T11:23:58;99181.00;;;12.70;84.85
7109;BME280;29079;41.930;25.558;2024-02-26T11:26:49;99176.34;;;12.73;86.24
7109;BME280;29079;41.930;25.558;2024-02-26T11:29:44;99156.31;;;12.77;85.08
7109;BME280;29079;41.930;25.558;2024-02-26T11:32:35;99163.19;;;12.87;84.79
7109;BME280;29079;41.930;25.558;2024-02-26T11:35:23;99148.13;;;12.86;84.79
7109;BME280;29079;41.930;25.558;2024-02-26T11:38:17;99150.84;;;12.95;84.77
7109;BME280;29079;41.930;25.558;2024-02-26T11:41:09;99147.56;;;13.09;83.07
7109;BME280;29079;41.930;25.558;2024-02-26T11:43:58;99147.06;;;13.14;78.67
7109;BME280;29079;41.930;25.558;2024-02-26T11:46:48;99132.34;;;13.18;79.16
7109;BME280;29079;41.930;25.558;2024-02-26T11:49:36;99118.47;;;13.14;79.54
7109;BME280;29079;41.930;25.558;2024-02-26T11:52:24;99130.09;;;13.39;79.26
7109;BME280;29079;41.930;25.558;2024-02-26T11:55:31;99130.75;;;13.41;79.24
7109;BME280;29079;41.930;25.558;2024-02-26T11:58:22;99135.13;;;13.43;79.82
7109;BME280;29079;41.930;25.558;2024-02-26T12:01:40;99140.16;;;13.46;79.28
7109;BME280;29079;41.930;25.558;2024-02-26T12:04:30;99112.66;;;13.35;81.01
7109;BME280;29079;41.930;25.558;2024-02-26T12:07:19;99128.59;;;13.45;79.55
7109;BME280;29079;41.930;25.558;2024-02-26T12:10:15;99124.41;;;13.43;80.67
7109;BME280;29079;41.930;25.558;2024-02-26T12:13:07;99095.44;;;13.38;79.93
7109;BME280;29079;41.930;25.558;2024-02-26T12:15:57;99121.09;;;13.57;79.83
7109;BME280;29079;41.930;25.558;2024-02-26T12:18:47;99119.91;;;13.51;80.24
7109;BME280;29079;41.930;25.558;2024-02-26T12:21:36;99120.75;;;13.60;81.52
7109;BME280;29079;41.930;25.558;2024-02-26T12:24:25;99101.47;;;13.48;81.42
7109;BME280;29079;41.930;25.558;2024-02-26T12:27:13;99126.44;;;13.57;79.34
7109;BME280;29079;41.930;25.558;2024-02-26T12:30:02;99137.66;;;13.61;78.20
7109;BME280;29079;41.930;25.558;2024-02-26T12:32:53;99112.69;;;13.44;78.12
7109;BME280;29079;41.930;25.558;2024-02-26T12:35:44;99137.84;;;13.51;78.96
7109;BME280;29079;41.930;25.558;2024-02-26T12:38:34;99135.84;;;13.61;76.12
7109;BME280;29079;41.930;25.558;2024-02-26T12:41:24;99132.63;;;13.57;75.68
7109;BME280;29079;41.930;25.558;2024-02-26T12:44:12;99137.50;;;13.54;76.68
7109;BME280;29079;41.930;25.558;2024-02-26T12:47:01;99130.47;;;13.61;77.11
7109;BME280;29079;41.930;25.558;2024-02-26T12:49:51;99130.13;;;13.56;75.65
7109;BME280;29079;41.930;25.558;2024-02-26T12:52:43;99137.66;;;13.61;78.38
7109;BME280;29079;41.930;25.558;2024-02-26T12:55:32;99145.72;;;13.52;78.58
7109;BME280;29079;41.930;25.558;2024-02-26T12:58:21;99136.50;;;13.55;76.42
7109;BME280;29079;41.930;25.558;2024-02-26T13:01:14;99137.50;;;13.54;78.48
7109;BME280;29079;41.930;25.558;2024-02-26T13:04:03;99141.53;;;13.58;78.92
7109;BME280;29079;41.930;25.558;2024-02-26T13:06:55;99141.53;;;13.66;78.20
7109;BME280;29079;41.930;25.558;2024-02-26T13:09:47;99135.50;;;13.64;79.48
7109;BME280;29079;41.930;25.558;2024-02-26T13:12:35;99118.03;;;13.52;78.96
7109;BME280;29079;41.930;25.558;2024-02-26T13:15:23;99110.00;;;13.44;77.78
7109;BME280;29079;41.930;25.558;2024-02-26T13:18:13;99138.69;;;13.68;78.75
7109;BME280;29079;41.930;25.558;2024-02-26T13:21:09;99106.81;;;13.48;78.75
7109;BME280;29079;41.930;25.558;2024-02-26T13:24:00;99151.41;;;13.66;79.87
7109;BME280;29079;41.930;25.558;2024-02-26T13:26:54;99149.56;;;13.66;80.03
7109;BME280;29079;41.930;25.558;2024-02-26T13:29:42;99159.81;;;13.63;80.59
7109;BME280;29079;41.930;25.558;2024-02-26T13:32:32;99158.78;;;13.72;79.07
7109;BME280;29079;41.930;25.558;2024-02-26T13:35:21;99168.72;;;13.80;79.61
7109;BME280;29079;41.930;25.558;2024-02-26T13:38:10;99163.81;;;13.75;79.42
7109;BME280;29079;41.930;25.558;2024-02-26T13:41:00;99163.00;;;13.74;79.47
7109;BME280;29079;41.930;25.558;2024-02-26T13:43:48;99166.66;;;13.73;79.09
7109;BME280;29079;41.930;25.558;2024-02-26T13:46:36;99169.34;;;13.73;78.28
7109;BME280;29079;41.930;25.558;2024-02-26T13:49:24;99177.56;;;13.72;78.12
7109;BME280;29079;41.930;25.558;2024-02-26T13:52:13;99170.69;;;13.69;79.52
7109;BME280;29079;41.930;25.558;2024-02-26T13:55:01;99174.38;;;13.68;79.19
7109;BME280;29079;41.930;25.558;2024-02-26T13:57:51;99168.53;;;13.73;77.85
7109;BME280;29079;41.930;25.558;2024-02-26T14:00:40;99167.84;;;13.79;78.95
7109;BME280;29079;41.930;25.558;2024-02-26T14:03:30;99167.53;;;13.74;78.87
7109;BME280;29079;41.930;25.558;2024-02-26T14:06:18;99138.69;;;13.60;78.09
7109;BME280;29079;41.930;25.558;2024-02-26T14:09:06;99130.13;;;13.64;77.90
7109;BME280;29079;41.930;25.558;2024-02-26T14:11:54;99164.19;;;13.80;78.22
7109;BME280;29079;41.930;25.558;2024-02-26T14:14:44;99145.38;;;13.72;77.68
7109;BME280;29079;41.930;25.558;2024-02-26T14:17:35;99166.84;;;13.80;77.97
7109;BME280;29079;41.930;25.558;2024-02-26T14:20:24;99154.28;;;13.81;76.96
7109;BME280;29079;41.930;25.558;2024-02-26T14:23:14;99161.00;;;13.85;77.93
7109;BME280;29079;41.930;25.558;2024-02-26T14:26:02;99163.84;;;13.83;77.65
7109;BME280;29079;41.930;25.558;2024-02-26T14:28:50;99173.06;;;13.89;77.80
7109;BME280;29079;41.930;25.558;2024-02-26T14:31:40;99160.66;;;13.80;77.69
7109;BME280;29079;41.930;25.558;2024-02-26T14:34:31;99173.72;;;13.91;77.92
7109;BME280;29079;41.930;25.558;2024-02-26T14:37:19;99167.03;;;13.79;78.62
7109;BME280;29079;41.930;25.558;2024-02-26T14:40:08;99183.97;;;13.87;79.13
7109;BME280;29079;41.930;25.558;2024-02-26T14:42:56;99184.28;;;13.92;78.52
7109;BME280;29079;41.930;25.558;2024-02-26T14:45:46;99190.84;;;13.90;77.71
7109;BME280;29079;41.930;25.558;2024-02-26T14:48:35;99195.84;;;13.85;76.95
7109;BME280;29079;41.930;25.558;2024-02-26T14:51:23;99195.19;;;13.83;76.96
7109;BME280;29079;41.930;25.558;2024-02-26T14:54:12;99196.03;;;13.83;76.98